createdAt,value
2022-09-02T00:02:17.604Z,98306.00
2022-09-02T00:04:45.275Z,98308.00
2022-09-02T00:07:12.582Z,98300.00
2022-09-02T00:09:40.625Z,98299.00
2022-09-02T00:12:09.679Z,98290.00
2022-09-02T00:14:39.671Z,98292.00
2022-09-02T00:17:07.333Z,98286.00
2022-09-02T00:19:36.258Z,98290.00
2022-09-02T00:22:04.559Z,98289.00
2022-09-02T00:24:32.663Z,98295.00
2022-09-02T00:27:03.952Z,98284.00
2022-09-02T00:29:32.080Z,98296.00
2022-09-02T00:31:59.668Z,98293.00
2022-09-02T00:34:27.121Z,98289.00
2022-09-02T00:36:54.471Z,98286.00
2022-09-02T00:39:21.764Z,98289.00
2022-09-02T00:41:49.292Z,98292.00
2022-09-02T00:44:20.136Z,98286.00
2022-09-02T00:46:48.076Z,98278.00
2022-09-02T00:49:33.106Z,98281.00
2022-09-02T00:52:20.950Z,98282.00
2022-09-02T00:55:00.593Z,98285.00
2022-09-02T00:57:38.595Z,98279.00
2022-09-02T01:00:34.885Z,98279.00
2022-09-02T01:03:10.236Z,98280.00
2022-09-02T01:05:45.838Z,98280.00
2022-09-02T01:08:27.556Z,98282.00
2022-09-02T01:10:57.772Z,98279.00
2022-09-02T01:13:32.216Z,98273.00
2022-09-02T01:16:19.668Z,98279.00
2022-09-02T01:18:55.573Z,98279.00
2022-09-02T01:21:23.873Z,98279.00
2022-09-02T01:23:52.897Z,98282.00
2022-09-02T01:26:20.960Z,98275.00
2022-09-02T01:28:51.908Z,98269.00
2022-09-02T01:31:19.258Z,98273.00
2022-09-02T01:33:46.578Z,98274.00
2022-09-02T01:36:15.479Z,98264.00
2022-09-02T01:38:42.778Z,98260.00
2022-09-02T01:41:10.198Z,98261.00
2022-09-02T01:43:37.555Z,98251.00
2022-09-02T01:46:04.956Z,98262.00
2022-09-02T01:48:32.321Z,98260.00
2022-09-02T01:51:03.889Z,98255.00
2022-09-02T01:53:32.263Z,98252.00
2022-09-02T01:56:00.177Z,98254.00
2022-09-02T01:58:28.309Z,98257.00
2022-09-02T02:00:55.643Z,98263.00
2022-09-02T02:03:24.222Z,98258.00
2022-09-02T02:05:52.410Z,98259.00
2022-09-02T02:08:19.817Z,98256.00
2022-09-02T02:10:47.848Z,98258.00
2022-09-02T02:13:16.208Z,98262.00
2022-09-02T02:15:44.957Z,98264.00
2022-09-02T02:18:12.956Z,98254.00
2022-09-02T02:20:44.752Z,98268.00
2022-09-02T02:23:13.013Z,98264.00
2022-09-02T02:25:40.403Z,98264.00
2022-09-02T02:28:07.817Z,98262.00
2022-09-02T02:30:36.984Z,98262.00
2022-09-02T02:33:06.145Z,98261.00
2022-09-02T02:35:33.573Z,98254.00
2022-09-02T02:38:03.600Z,98262.00
2022-09-02T02:40:32.037Z,98254.00
2022-09-02T02:43:00.248Z,98257.00
2022-09-02T02:45:27.737Z,98258.00
2022-09-02T02:47:55.791Z,98258.00
2022-09-02T02:50:25.995Z,98266.00
2022-09-02T02:52:54.892Z,98261.00
2022-09-02T02:55:24.852Z,98257.00
2022-09-02T02:57:53.129Z,98260.00
2022-09-02T03:00:30.917Z,98257.00
2022-09-02T03:03:10.918Z,98251.00
2022-09-02T03:05:40.347Z,98259.00
2022-09-02T03:08:11.095Z,98254.00
2022-09-02T03:10:42.041Z,98253.00
2022-09-02T03:13:11.609Z,98245.00
2022-09-02T03:15:40.214Z,98261.00
2022-09-02T03:18:08.408Z,98258.00
2022-09-02T03:20:35.937Z,98254.00
2022-09-02T03:23:04.699Z,98250.00
2022-09-02T03:25:35.919Z,98252.00
2022-09-02T03:28:05.105Z,98251.00
2022-09-02T03:30:35.520Z,98252.00
2022-09-02T03:33:05.933Z,98250.00
2022-09-02T03:35:38.909Z,98243.00
2022-09-02T03:38:06.856Z,98238.00
2022-09-02T03:40:34.462Z,98233.00
2022-09-02T03:43:02.556Z,98238.00
2022-09-02T03:45:31.813Z,98239.00
2022-09-02T03:47:59.268Z,98239.00
2022-09-02T03:50:39.309Z,98240.00
2022-09-02T03:53:08.677Z,98245.00
2022-09-02T03:55:38.112Z,98241.00
2022-09-02T03:58:08.549Z,98238.00
2022-09-02T04:00:36.265Z,98241.00
2022-09-02T04:03:04.244Z,98236.00
2022-09-02T04:05:32.175Z,98234.00
2022-09-02T04:08:00.257Z,98234.00
2022-09-02T04:10:28.294Z,98230.00
2022-09-02T04:12:55.738Z,98232.00
2022-09-02T04:15:23.091Z,98225.00
2022-09-02T04:17:50.477Z,98226.00
2022-09-02T04:20:18.853Z,98228.00
2022-09-02T04:22:46.175Z,98225.00
2022-09-02T04:25:13.588Z,98225.00
2022-09-02T04:27:41.344Z,98212.00
2022-09-02T04:30:10.296Z,98228.00
2022-09-02T04:32:40.656Z,98220.00
2022-09-02T04:35:10.425Z,98220.00
2022-09-02T04:37:38.555Z,98227.00
2022-09-02T04:40:06.766Z,98218.00
2022-09-02T04:42:34.685Z,98221.00
2022-09-02T04:45:02.559Z,98218.00
2022-09-02T04:47:30.820Z,98222.00
2022-09-02T04:49:58.492Z,98220.00
2022-09-02T04:52:26.127Z,98211.00
2022-09-02T04:54:53.477Z,98218.00
2022-09-02T04:57:21.592Z,98226.00
2022-09-02T04:59:49.022Z,98215.00
2022-09-02T05:02:16.438Z,98216.00
2022-09-02T05:04:43.904Z,98225.00
2022-09-02T05:07:11.924Z,98203.00
2022-09-02T05:09:40.500Z,98208.00
2022-09-02T05:12:08.201Z,98217.00
2022-09-02T05:14:36.499Z,98217.00
2022-09-02T05:17:07.706Z,98220.00
2022-09-02T05:19:35.523Z,98215.00
2022-09-02T05:22:03.092Z,98229.00
2022-09-02T05:24:30.430Z,98222.00
2022-09-02T05:26:57.788Z,98230.00
2022-09-02T05:29:26.528Z,98221.00
2022-09-02T05:31:54.035Z,98230.00
2022-09-02T05:34:23.211Z,98229.00
2022-09-02T05:36:52.784Z,98228.00
2022-09-02T05:39:20.167Z,98227.00
2022-09-02T05:41:47.510Z,98221.00
2022-09-02T05:44:14.844Z,98225.00
2022-09-02T05:46:45.529Z,98225.00
2022-09-02T05:49:18.615Z,98231.00
2022-09-02T05:51:56.508Z,98225.00
2022-09-02T05:54:31.344Z,98230.00
2022-09-02T05:57:08.739Z,98222.00
2022-09-02T05:59:41.040Z,98226.00
2022-09-02T06:02:15.064Z,98231.00
2022-09-02T06:04:50.046Z,98234.00
2022-09-02T06:07:23.761Z,98235.00
2022-09-02T06:09:52.388Z,98232.00
2022-09-02T06:12:20.647Z,98236.00
2022-09-02T06:14:49.969Z,98240.00
2022-09-02T06:17:17.397Z,98229.00
2022-09-02T06:19:44.836Z,98220.00
2022-09-02T06:22:12.146Z,98220.00
2022-09-02T06:24:41.047Z,98220.00
2022-09-02T06:27:08.411Z,98221.00
2022-09-02T06:29:35.726Z,98219.00
2022-09-02T06:32:03.469Z,98220.00
2022-09-02T06:34:30.889Z,98219.00
2022-09-02T06:36:59.607Z,98219.00
2022-09-02T06:39:27.036Z,98215.00
2022-09-02T06:41:55.785Z,98210.00
2022-09-02T06:44:23.112Z,98213.00
2022-09-02T06:46:59.163Z,98207.00
2022-09-02T06:49:28.776Z,98207.00
2022-09-02T06:51:57.286Z,98199.00
2022-09-02T06:54:25.755Z,98212.00
2022-09-02T06:56:53.437Z,98205.00
2022-09-02T06:59:22.148Z,98202.00
2022-09-02T07:01:51.055Z,98204.00
2022-09-02T07:04:37.772Z,98204.00
2022-09-02T07:07:08.852Z,98199.00
2022-09-02T07:09:36.483Z,98203.00
2022-09-02T07:12:05.725Z,98199.00
2022-09-02T07:14:41.009Z,98197.00
2022-09-02T07:17:12.714Z,98201.00
2022-09-02T07:19:40.108Z,98204.00
2022-09-02T07:22:08.077Z,98207.00
2022-09-02T07:24:36.740Z,98205.00
2022-09-02T07:27:05.940Z,98200.00
2022-09-02T07:29:35.419Z,98198.00
2022-09-02T07:32:03.245Z,98195.00
2022-09-02T07:34:30.828Z,98198.00
2022-09-02T07:37:03.237Z,98199.00
2022-09-02T07:39:32.823Z,98204.00
2022-09-02T07:42:00.674Z,98198.00
2022-09-02T07:44:28.568Z,98206.00
2022-09-02T07:46:56.281Z,98208.00
2022-09-02T07:49:24.400Z,98203.00
2022-09-02T07:51:52.466Z,98203.00
2022-09-02T07:54:26.296Z,98200.00
2022-09-02T07:56:55.735Z,98192.00
2022-09-02T07:59:24.787Z,98191.00
2022-09-02T08:01:53.152Z,98192.00
2022-09-02T08:04:24.626Z,98200.00
2022-09-02T08:06:56.372Z,98201.00
2022-09-02T08:09:24.283Z,98199.00
2022-09-02T08:11:52.339Z,98195.00
2022-09-02T08:14:27.629Z,98199.00
2022-09-02T08:16:57.893Z,98200.00
2022-09-02T08:19:27.381Z,98189.00
2022-09-02T08:21:55.328Z,98196.00
2022-09-02T08:24:22.983Z,98191.00
2022-09-02T08:26:50.668Z,98185.00
2022-09-02T08:29:18.128Z,98197.00
2022-09-02T08:31:45.850Z,98199.00
2022-09-02T08:34:13.860Z,98197.00
2022-09-02T08:36:47.503Z,98189.00
2022-09-02T08:39:26.060Z,98191.00
2022-09-02T08:42:32.044Z,98178.00
2022-09-02T08:45:37.697Z,98180.00
2022-09-02T08:48:41.930Z,98188.00
2022-09-02T08:51:39.107Z,98186.00
2022-09-02T08:54:57.132Z,98193.00
2022-09-02T08:57:27.204Z,98184.00
2022-09-02T09:00:01.818Z,98185.00
2022-09-02T09:03:27.715Z,98181.00
2022-09-02T09:06:30.440Z,98179.00
2022-09-02T09:09:21.719Z,98182.00
2022-09-02T09:13:03.104Z,98176.00
2022-09-02T09:16:00.380Z,98183.00
2022-09-02T09:19:14.524Z,98169.00
2022-09-02T09:21:43.789Z,98166.00
2022-09-02T09:24:39.265Z,98156.00
2022-09-02T09:27:17.223Z,98157.00
2022-09-02T09:29:45.199Z,98157.00
2022-09-02T09:32:41.406Z,98160.00
2022-09-02T09:35:18.223Z,98164.00
2022-09-02T09:37:52.392Z,98154.00
2022-09-02T09:40:23.067Z,98150.00
2022-09-02T09:43:06.349Z,98148.00
2022-09-02T09:45:49.339Z,98147.00
2022-09-02T09:48:16.536Z,98152.00
2022-09-02T09:50:57.357Z,98154.00
2022-09-02T09:53:36.996Z,98147.00
2022-09-02T09:56:28.851Z,98156.00
2022-09-02T09:58:56.215Z,98150.00
2022-09-02T10:01:36.940Z,98148.00
2022-09-02T10:07:00.947Z,98139.00
2022-09-02T10:09:36.637Z,98146.00
2022-09-02T10:12:09.615Z,98143.00
2022-09-02T10:14:50.154Z,98135.00
2022-09-02T10:17:33.117Z,98140.00
2022-09-02T10:20:31.409Z,98137.00
2022-09-02T10:23:47.368Z,98140.00
2022-09-02T10:26:48.170Z,98139.00
2022-09-02T10:29:54.823Z,98131.00
2022-09-02T10:33:13.565Z,98122.00
2022-09-02T10:36:18.910Z,98119.00
2022-09-02T10:38:50.793Z,98105.00
2022-09-02T10:41:47.896Z,98119.00
2022-09-02T10:44:38.253Z,98122.00
2022-09-02T10:47:35.554Z,98119.00
2022-09-02T10:50:26.940Z,98114.00
2022-09-02T10:53:26.405Z,98120.00
2022-09-02T10:56:22.177Z,98120.00
2022-09-02T10:59:32.908Z,98123.00
2022-09-02T11:02:21.855Z,98129.00
2022-09-02T11:05:11.734Z,98116.00
2022-09-02T11:08:10.363Z,98118.00
2022-09-02T11:11:21.670Z,98128.00
2022-09-02T11:14:32.990Z,98126.00
2022-09-02T11:17:21.486Z,98121.00
2022-09-02T11:20:37.821Z,98120.00
2022-09-02T11:24:02.381Z,98111.00
2022-09-02T11:27:32.260Z,98098.00
2022-09-02T11:30:22.432Z,98100.00
2022-09-02T11:33:30.324Z,98092.00
2022-09-02T11:36:00.049Z,98091.00
2022-09-02T11:39:25.781Z,98083.00
2022-09-02T11:42:50.309Z,98076.00
2022-09-02T11:46:06.252Z,98073.00
2022-09-02T11:48:59.387Z,98064.00
2022-09-02T11:55:12.323Z,98056.00
2022-09-02T11:57:42.102Z,98061.00
2022-09-02T12:00:58.363Z,98065.00
2022-09-02T12:03:52.045Z,98065.00
2022-09-02T12:06:21.278Z,98067.00
2022-09-02T12:08:50.127Z,98051.00
2022-09-02T12:11:48.485Z,98044.00
2022-09-02T12:14:21.627Z,98056.00
2022-09-02T12:17:09.653Z,98049.00
2022-09-02T12:19:45.434Z,98049.00
2022-09-02T12:22:15.751Z,98046.00
2022-09-02T12:25:04.272Z,98044.00
2022-09-02T12:27:38.093Z,98038.00
2022-09-02T12:30:12.661Z,98040.00
2022-09-02T12:32:51.532Z,98036.00
2022-09-02T12:35:39.594Z,98045.00
2022-09-02T12:38:10.270Z,98042.00
2022-09-02T12:41:00.568Z,98036.00
2022-09-02T12:44:24.232Z,98038.00
2022-09-02T12:47:22.128Z,98029.00
2022-09-02T12:50:20.893Z,98028.00
2022-09-02T12:52:52.540Z,98024.00
2022-09-02T12:55:32.193Z,98011.00
2022-09-02T12:58:19.748Z,98005.00
2022-09-02T13:01:51.341Z,98006.00
2022-09-02T13:04:49.717Z,97997.00
2022-09-02T13:08:13.632Z,98006.00
2022-09-02T13:11:42.393Z,97998.00
2022-09-02T13:15:32.714Z,98004.00
2022-09-02T13:18:55.254Z,97994.00
2022-09-02T13:22:00.836Z,98003.00
2022-09-02T13:25:13.257Z,97989.00
2022-09-02T13:28:48.076Z,97989.00
2022-09-02T13:31:27.829Z,97983.00
2022-09-02T13:34:13.512Z,97987.00
2022-09-02T13:36:46.665Z,97992.00
2022-09-02T13:39:27.966Z,97993.00
2022-09-02T13:41:57.352Z,98002.00
2022-09-02T13:44:31.641Z,97993.00
2022-09-02T13:47:22.156Z,97987.00
2022-09-02T13:49:53.879Z,97999.00
2022-09-02T13:53:01.133Z,97986.00
2022-09-02T13:55:16.530Z,97992.00
2022-09-02T13:58:30.853Z,97983.00
2022-09-02T14:01:38.245Z,97965.00
2022-09-02T14:04:14.882Z,97985.00
2022-09-02T14:06:47.494Z,97991.00
2022-09-02T14:09:29.550Z,97994.00
2022-09-02T14:11:58.800Z,98002.00
2022-09-02T14:14:26.812Z,98012.00
2022-09-02T14:17:27.104Z,98022.00
2022-09-02T14:20:22.089Z,98027.00
2022-09-02T14:23:00.232Z,98022.00
2022-09-02T14:25:38.021Z,98012.00
2022-09-02T14:28:24.628Z,98000.00
2022-09-02T14:31:09.164Z,97995.00
2022-09-02T14:33:36.353Z,97990.00
2022-09-02T14:36:15.305Z,97991.00
2022-09-02T14:38:48.453Z,98000.00
2022-09-02T14:41:18.349Z,98003.00
2022-09-02T14:43:50.679Z,98010.00
2022-09-02T14:46:37.288Z,98011.00
2022-09-02T14:49:32.884Z,98003.00
2022-09-02T14:52:18.047Z,98008.00
2022-09-02T14:54:50.364Z,98012.00
2022-09-02T14:57:39.033Z,98049.00
2022-09-02T15:00:13.869Z,98123.00
2022-09-02T15:02:47.688Z,98122.00
2022-09-02T15:05:15.511Z,98132.00
2022-09-02T15:07:43.483Z,98151.00
2022-09-02T15:10:11.028Z,98175.00
2022-09-02T15:12:58.708Z,98178.00
2022-09-02T15:15:27.555Z,98215.00
2022-09-02T15:17:56.528Z,98216.00
2022-09-02T15:20:29.214Z,98224.00
2022-09-02T15:22:56.552Z,98221.00
2022-09-02T15:25:23.979Z,98206.00
2022-09-02T15:27:51.830Z,98192.00
2022-09-02T15:30:19.235Z,98194.00
2022-09-02T15:32:46.546Z,98186.00
2022-09-02T15:35:15.228Z,98196.00
2022-09-02T15:37:43.004Z,98195.00
2022-09-02T15:40:11.587Z,98189.00
2022-09-02T15:42:40.042Z,98180.00
2022-09-02T15:45:09.471Z,98182.00
2022-09-02T15:47:38.158Z,98123.00
2022-09-02T15:50:09.277Z,98156.00
2022-09-02T15:52:37.486Z,98130.00
2022-09-02T15:55:05.656Z,98143.00
2022-09-02T15:57:33.124Z,98153.00
2022-09-02T16:00:00.458Z,98106.00
2022-09-02T16:02:27.875Z,98143.00
2022-09-02T16:04:57.335Z,98156.00
2022-09-02T16:07:24.659Z,98129.00
2022-09-02T16:09:52.220Z,98146.00
2022-09-02T16:12:19.934Z,98142.00
2022-09-02T16:14:51.053Z,98101.00
2022-09-02T16:17:18.590Z,98119.00
2022-09-02T16:19:46.098Z,98102.00
2022-09-02T16:22:13.516Z,98090.00
2022-09-02T16:24:41.000Z,98104.00
2022-09-02T16:27:10.610Z,98099.00
2022-09-02T16:29:39.542Z,98090.00
2022-09-02T16:32:24.559Z,98089.00
2022-09-02T16:34:55.996Z,98120.00
2022-09-02T16:37:26.650Z,98084.00
2022-09-02T16:39:58.364Z,98111.00
2022-09-02T16:42:26.148Z,98088.00
2022-09-02T16:44:56.121Z,98086.00
2022-09-02T16:47:27.587Z,98094.00
2022-09-02T16:49:55.174Z,98065.00
2022-09-02T16:52:25.537Z,98080.00
2022-09-02T16:54:52.891Z,98079.00
2022-09-02T16:57:20.363Z,98078.00
2022-09-02T16:59:47.799Z,98072.00
2022-09-02T17:02:15.357Z,98067.00
2022-09-02T17:04:43.102Z,98076.00
2022-09-02T17:07:10.601Z,98044.00
2022-09-02T17:09:38.234Z,98027.00
2022-09-02T17:12:05.838Z,98046.00
2022-09-02T17:14:33.278Z,98042.00
2022-09-02T17:17:01.734Z,98048.00
2022-09-02T17:19:32.422Z,98045.00
2022-09-02T17:22:00.528Z,98056.00
2022-09-02T17:24:32.179Z,98041.00
2022-09-02T17:27:01.178Z,98014.00
2022-09-02T17:32:20.398Z,98015.00
2022-09-02T17:34:50.473Z,98048.00
2022-09-02T17:37:19.061Z,98010.00
2022-09-02T17:39:47.367Z,98007.00
2022-09-02T17:42:15.210Z,98017.00
2022-09-02T17:44:42.963Z,98010.00
2022-09-02T17:47:20.368Z,98049.00
2022-09-02T17:49:49.140Z,98037.00
2022-09-02T17:52:24.646Z,98041.00
2022-09-02T17:54:54.574Z,98015.00
2022-09-02T17:58:04.279Z,98047.00
2022-09-02T18:00:35.722Z,98039.00
2022-09-02T18:03:31.434Z,98035.00
2022-09-02T18:06:25.040Z,98008.00
2022-09-02T18:09:01.108Z,98058.00
2022-09-02T18:11:30.770Z,98015.00
2022-09-02T18:14:38.741Z,98014.00
2022-09-02T18:17:52.423Z,98044.00
2022-09-02T18:20:44.284Z,98004.00
2022-09-02T18:23:53.449Z,98035.00
2022-09-02T18:27:05.335Z,98014.00
2022-09-02T18:30:04.260Z,97998.00
2022-09-02T18:33:08.224Z,98001.00
2022-09-02T18:36:39.164Z,98042.00
2022-09-02T18:39:37.464Z,98033.00
2022-09-02T18:42:54.801Z,97996.00
2022-09-02T18:45:43.261Z,98023.00
2022-09-02T18:48:31.243Z,98025.00
2022-09-02T18:51:40.994Z,98033.00
2022-09-02T18:54:30.992Z,98031.00
2022-09-02T18:57:05.175Z,98026.00
2022-09-02T19:00:04.168Z,98024.00
2022-09-02T19:02:50.378Z,98017.00
2022-09-02T19:05:25.248Z,98015.00
2022-09-02T19:08:35.105Z,98009.00
2022-09-02T19:11:17.949Z,98017.00
2022-09-02T19:14:01.649Z,98012.00
2022-09-02T19:16:36.614Z,98009.00
2022-09-02T19:19:06.492Z,98017.00
2022-09-02T19:21:48.646Z,98017.00
2022-09-02T19:24:57.143Z,98014.00
2022-09-02T19:27:40.691Z,98012.00
2022-09-02T19:30:20.296Z,98028.00
2022-09-02T19:32:58.663Z,98028.00
2022-09-02T19:35:30.278Z,98014.00
2022-09-02T19:37:57.661Z,98025.00
2022-09-02T19:40:34.419Z,98039.00
2022-09-02T19:43:07.460Z,98030.00
2022-09-02T19:45:37.464Z,98031.00
2022-09-02T19:48:11.101Z,98046.00
2022-09-02T19:50:44.186Z,98039.00
2022-09-02T19:53:29.972Z,98038.00
2022-09-02T19:56:01.854Z,98048.00
2022-09-02T19:58:30.572Z,98043.00
2022-09-02T20:00:59.185Z,98049.00
2022-09-02T20:03:28.095Z,98043.00
2022-09-02T20:05:55.484Z,98043.00
2022-09-02T20:08:29.119Z,98042.00
2022-09-02T20:11:02.804Z,98042.00
2022-09-02T20:13:41.225Z,98051.00
2022-09-02T20:16:25.551Z,98053.00
2022-09-02T20:18:55.180Z,98041.00
2022-09-02T20:21:35.379Z,98042.00
2022-09-02T20:24:10.478Z,98037.00
2022-09-02T20:27:12.449Z,98042.00
2022-09-02T20:30:15.944Z,98039.00
2022-09-02T20:33:03.040Z,98032.00
2022-09-02T20:36:25.643Z,98035.00
2022-09-02T20:39:41.852Z,98024.00
2022-09-02T20:42:37.180Z,98029.00
2022-09-02T20:45:32.950Z,98032.00
2022-09-02T20:48:44.054Z,98030.00
2022-09-02T20:52:17.537Z,98033.00
2022-09-02T20:55:14.530Z,98038.00
2022-09-02T20:58:18.421Z,98033.00
2022-09-02T21:01:10.083Z,98021.00
2022-09-02T21:04:26.060Z,98033.00
2022-09-02T21:07:34.369Z,98037.00
2022-09-02T21:10:29.717Z,98033.00
2022-09-02T21:13:51.476Z,98028.00
2022-09-02T21:16:38.895Z,98022.00
2022-09-02T21:19:31.889Z,98032.00
2022-09-02T21:22:34.956Z,98041.00
2022-09-02T21:25:38.165Z,98029.00
2022-09-02T21:28:19.490Z,98027.00
2022-09-02T21:31:02.693Z,98025.00
2022-09-02T21:33:34.308Z,98034.00
2022-09-02T21:36:02.697Z,98029.00
2022-09-02T21:38:46.536Z,98017.00
2022-09-02T21:41:43.935Z,98028.00
2022-09-02T21:44:47.360Z,98031.00
2022-09-02T21:47:40.272Z,98032.00
2022-09-02T21:50:21.873Z,98031.00
2022-09-02T21:53:06.799Z,98026.00
2022-09-02T21:56:11.425Z,98031.00
2022-09-02T21:59:22.900Z,98027.00
2022-09-02T22:02:20.190Z,98022.00
2022-09-02T22:05:17.921Z,98017.00
2022-09-02T22:08:19.540Z,98022.00
2022-09-02T22:11:22.120Z,98021.00
2022-09-02T22:13:50.437Z,98015.00
2022-09-02T22:17:04.416Z,98023.00
2022-09-02T22:19:39.114Z,98033.00
2022-09-02T22:22:24.534Z,98030.00
2022-09-02T22:24:55.158Z,98042.00
2022-09-02T22:27:41.207Z,98051.00
2022-09-02T22:30:15.360Z,98050.00
2022-09-02T22:33:06.916Z,98053.00
2022-09-02T22:35:54.063Z,98053.00
2022-09-02T22:38:47.150Z,98061.00
2022-09-02T22:41:33.217Z,98067.00
2022-09-02T22:45:05.585Z,98063.00
2022-09-02T22:48:06.133Z,98070.00
2022-09-02T22:51:04.024Z,98076.00
2022-09-02T22:53:31.627Z,98086.00
2022-09-02T22:56:11.465Z,98084.00
2022-09-02T22:59:18.040Z,98070.00
2022-09-02T23:02:37.151Z,98072.00
2022-09-02T23:06:07.981Z,98070.00
2022-09-02T23:08:38.033Z,98074.00
2022-09-02T23:11:14.866Z,98073.00
2022-09-02T23:14:26.571Z,98070.00
2022-09-02T23:17:36.964Z,98071.00
2022-09-02T23:20:12.049Z,98071.00
2022-09-02T23:23:26.149Z,98064.00
2022-09-02T23:26:35.528Z,98080.00
2022-09-02T23:29:25.908Z,98087.00
2022-09-02T23:32:55.531Z,98071.00
2022-09-02T23:36:08.161Z,98060.00
2022-09-02T23:39:29.283Z,98047.00
2022-09-02T23:42:03.085Z,98046.00
2022-09-02T23:44:31.231Z,98042.00
2022-09-02T23:47:37.684Z,98036.00
2022-09-02T23:51:01.160Z,98033.00
2022-09-02T23:54:02.057Z,98038.00
2022-09-02T23:57:07.599Z,98031.00
